Time;durP1;ratioP1;P1;durP2;ratioP2;P2;SDS_P1;SDS_P2;PMS_P1;PMS_P2;Temp;Humidity;BMP_temperature;BMP_pressure;BME280_temperature;BME280_humidity;BME280_pressure;Samples;Min_cycle;Max_cycle;Signal;HPM_P1;HPM_P2
2023/10/07 00:01:00;;;;;;;9.40;3.53;;;;;;;8.84;78.68;101258.69;4991555;28;20133;-82
2023/10/07 00:03:26;;;;;;;9.35;3.40;;;;;;;9.03;77.88;101263.13;4993288;28;20047;-84
2023/10/07 00:06:00;;;;;;;10.75;3.03;;;;;;;9.10;77.64;101260.56;4985834;28;20057;-83
2023/10/07 00:08:28;;;;;;;9.63;3.25;;;;;;;9.03;77.57;101265.72;4991330;28;20043;-83
2023/10/07 00:10:58;;;;;;;10.57;3.55;;;;;;;9.12;77.14;101274.50;4992774;28;20112;-84
2023/10/07 00:13:30;;;;;;;9.45;3.60;;;;;;;9.11;77.01;101278.00;4991690;28;20104;-83
2023/10/07 00:15:59;;;;;;;9.23;3.58;;;;;;;9.00;77.60;101281.44;4992669;28;20060;-83
2023/10/07 00:18:28;;;;;;;7.85;3.10;;;;;;;8.93;77.61;101268.31;4988596;28;20050;-83
2023/10/07 00:20:55;;;;;;;8.45;3.40;;;;;;;8.89;77.65;101256.94;4992685;28;20046;-82
2023/10/07 00:23:26;;;;;;;7.85;3.05;;;;;;;8.82;77.50;101257.78;4990967;28;20076;-83
2023/10/07 00:25:55;;;;;;;10.40;3.60;;;;;;;8.77;78.19;101252.53;4992396;28;20105;-83
2023/10/07 00:28:32;;;;;;;7.00;3.13;;;;;;;8.67;78.69;101255.97;4991786;28;20054;-83
2023/10/07 00:31:03;;;;;;;11.02;3.50;;;;;;;8.92;77.30;101259.59;4991693;28;20046;-83
2023/10/07 00:33:45;;;;;;;10.00;3.40;;;;;;;8.86;77.56;101252.59;4988080;28;20046;-82
2023/10/07 00:36:15;;;;;;;9.77;3.67;;;;;;;8.81;77.78;101256.06;4993138;28;20057;-84
2023/10/07 00:38:45;;;;;;;11.10;3.45;;;;;;;8.64;78.62;101251.56;4988728;28;20077;-83
2023/10/07 00:41:18;;;;;;;8.55;3.55;;;;;;;8.84;77.33;101253.44;4983835;28;20058;-85
2023/10/07 00:43:46;;;;;;;8.35;2.97;;;;;;;8.89;76.89;101243.84;4996335;28;20108;-85
2023/10/07 00:46:27;;;;;;;6.45;3.08;;;;;;;8.93;76.77;101248.25;4986781;28;20074;-83
2023/10/07 00:48:59;;;;;;;9.40;3.60;;;;;;;8.78;77.17;101248.19;4970519;28;20056;-83
2023/10/07 00:51:41;;;;;;;8.85;3.17;;;;;;;8.65;77.84;101253.34;4987855;28;20042;-84
2023/10/07 00:54:30;;;;;;;11.23;4.17;;;;;;;8.37;78.81;101257.47;4975075;28;20489;-85
2023/10/07 00:57:23;;;;;;;7.90;3.17;;;;;;;8.61;77.31;101262.03;4976874;28;20058;-83
2023/10/07 00:59:56;;;;;;;8.05;3.40;;;;;;;8.64;77.35;101267.28;4991558;28;20073;-84
2023/10/07 01:02:32;;;;;;;5.60;2.80;;;;;;;8.29;78.17;101248.72;4974951;28;20046;-83
2023/10/07 01:05:09;;;;;;;10.93;3.60;;;;;;;8.44;77.43;101247.94;4972418;28;20109;-82
2023/10/07 01:07:36;;;;;;;8.48;3.58;;;;;;;8.19;78.83;101247.75;4973527;28;20545;-83
2023/10/07 01:10:13;;;;;;;9.70;3.33;;;;;;;8.32;79.46;101249.59;4985650;28;20058;-82
2023/10/07 01:12:42;;;;;;;8.30;3.50;;;;;;;8.52;79.12;101241.06;4991185;28;20064;-83
2023/10/07 01:17:47;;;;;;;11.90;3.65;;;;;;;8.39;79.75;101231.34;4986405;28;20061;-85
2023/10/07 01:20:22;;;;;;;8.45;3.35;;;;;;;8.46;79.15;101241.03;4988048;28;20069;-85
2023/10/07 01:23:04;;;;;;;6.53;2.75;;;;;;;8.31;79.05;101246.97;4991922;28;20058;-85
2023/10/07 01:25:34;;;;;;;11.27;3.10;;;;;;;8.47;78.97;101253.22;4989456;28;20046;-83
2023/10/07 01:28:04;;;;;;;7.55;3.42;;;;;;;8.38;79.36;101245.28;4990778;28;20053;-82
2023/10/07 01:30:34;;;;;;;6.13;2.63;;;;;;;8.49;79.45;101246.28;4985233;28;20116;-86
2023/10/07 01:33:23;;;;;;;8.93;2.97;;;;;;;8.38;79.60;101248.75;4973165;28;20042;-82
2023/10/07 01:38:33;;;;;;;7.40;3.22;;;;;;;8.45;79.88;101228.81;4985820;28;20101;-83
2023/10/07 01:41:06;;;;;;;7.78;2.92;;;;;;;8.62;78.67;101224.53;4973286;28;20054;-83
2023/10/07 01:43:40;;;;;;;6.88;2.78;;;;;;;8.62;78.23;101228.91;4989995;28;20060;-84
2023/10/07 01:46:12;;;;;;;7.88;2.67;;;;;;;8.52;79.04;101244.53;4985640;28;20054;-83
2023/10/07 01:48:49;;;;;;;6.78;2.47;;;;;;;8.61;78.82;101241.09;4989392;28;20046;-83
2023/10/07 01:51:17;;;;;;;9.02;3.08;;;;;;;8.47;79.67;101247.97;4990926;28;20051;-82
2023/10/07 01:53:44;;;;;;;6.75;2.53;;;;;;;8.62;79.49;101258.56;4991979;28;20050;-82
2023/10/07 01:56:14;;;;;;;6.78;2.40;;;;;;;8.52;78.64;101262.84;4991711;28;20090;-83
2023/10/07 01:58:41;;;;;;;7.80;2.72;;;;;;;8.28;78.88;101263.50;4985087;28;20055;-83
2023/10/07 02:01:08;;;;;;;8.40;3.38;;;;;;;8.19;78.92;101273.91;4990310;28;20110;-83
2023/10/07 02:03:35;;;;;;;6.18;2.58;;;;;;;8.21;78.53;101263.47;4991061;28;20053;-84
2023/10/07 02:06:05;;;;;;;8.35;2.92;;;;;;;8.30;78.21;101258.31;4985675;28;20057;-82
2023/10/07 02:08:32;;;;;;;5.95;2.92;;;;;;;8.23;78.22;101248.69;4986982;28;20554;-82
2023/10/07 02:10:59;;;;;;;10.55;3.38;;;;;;;8.13;78.79;101253.81;4989465;28;20058;-83
2023/10/07 02:13:30;;;;;;;6.57;2.92;;;;;;;8.12;79.28;101246.81;4984809;28;20527;-84
2023/10/07 02:15:57;;;;;;;7.10;2.40;;;;;;;8.23;78.16;101239.09;4991631;28;20058;-82
2023/10/07 02:18:27;;;;;;;8.27;2.92;;;;;;;7.95;79.95;101237.97;4989113;28;20049;-85
2023/10/07 02:21:12;;;;;;;7.13;2.90;;;;;;;7.97;79.06;101231.91;4977315;28;20442;-82
2023/10/07 02:26:07;;;;;;;8.93;3.58;;;;;;;7.98;78.32;101248.44;4991472;28;20054;-82
2023/10/07 02:28:34;;;;;;;7.40;3.15;;;;;;;7.85;79.18;101242.28;4988234;28;20057;-83
2023/10/07 02:31:08;;;;;;;9.57;2.95;;;;;;;7.81;79.42;101250.94;4985073;28;20094;-82
2023/10/07 02:33:45;;;;;;;6.72;2.58;;;;;;;7.75;79.36;101250.84;4989414;28;20070;-81
2023/10/07 02:36:29;;;;;;;7.15;3.22;;;;;;;7.64;79.54;101243.78;4965614;28;20058;-82
2023/10/07 02:38:57;;;;;;;9.48;3.30;;;;;;;7.78;79.50;101241.31;4979237;28;20050;-83
2023/10/07 02:41:24;;;;;;;5.45;2.50;;;;;;;7.93;79.89;101256.25;4985687;28;20061;-84
2023/10/07 02:43:51;;;;;;;6.30;2.45;;;;;;;7.78;79.92;101261.38;4985943;28;20100;-83
2023/10/07 02:46:31;;;;;;;6.53;2.28;;;;;;;7.86;79.07;101257.06;4969033;28;20050;-84
2023/10/07 02:49:06;;;;;;;10.13;2.88;;;;;;;7.82;79.57;101252.66;4980877;28;20054;-83
2023/10/07 02:51:34;;;;;;;5.40;2.50;;;;;;;7.84;79.11;101259.66;4979017;28;20054;-83
2023/10/07 02:54:06;;;;;;;7.07;2.70;;;;;;;7.76;79.88;101268.28;4974761;28;20051;-83
2023/10/07 02:56:43;;;;;;;5.32;2.60;;;;;;;7.77;80.04;101259.59;4977074;28;20057;-82
2023/10/07 02:59:23;;;;;;;7.00;2.45;;;;;;;7.87;81.01;101260.56;4993200;28;20050;-81
2023/10/07 03:04:36;;;;;;;6.05;3.00;;;;;;;7.84;80.75;101261.41;4989397;28;20486;-82
2023/10/07 03:07:13;;;;;;;8.55;2.72;;;;;;;7.85;80.51;101263.19;4992162;28;20077;-82
2023/10/07 03:10:04;;;;;;;5.40;2.78;;;;;;;7.88;80.13;101271.03;4992431;28;20046;-82
2023/10/07 03:12:36;;;;;;;5.30;2.00;;;;;;;7.84;79.59;101264.03;4993277;28;20078;-83
2023/10/07 03:15:20;;;;;;;6.70;2.60;;;;;;;7.74;80.86;101259.56;4987924;28;20074;-85
2023/10/07 03:17:49;;;;;;;6.28;2.50;;;;;;;7.80;81.02;101254.41;4994161;28;20050;-85
2023/10/07 03:28:21;;;;;;;7.72;2.70;;;;;;;7.82;78.88;101263.13;4984512;28;20043;-83
2023/10/07 03:30:57;;;;;;;7.28;2.60;;;;;;;7.60;79.21;101260.31;4982990;28;20051;-85
2023/10/07 03:33:45;;;;;;;8.10;2.65;;;;;;;7.51;79.88;101261.97;4975128;28;20035;-82
2023/10/07 03:41:41;;;;;;;8.07;3.45;;;;;;;7.52;79.19;101267.19;4986223;28;20117;-84
2023/10/07 03:44:08;;;;;;;7.00;2.40;;;;;;;7.51;79.04;101265.44;4993788;28;20176;-84
2023/10/07 03:46:36;;;;;;;7.13;2.33;;;;;;;7.28;79.57;101268.66;4990642;28;20054;-82
2023/10/07 03:49:06;;;;;;;6.88;2.65;;;;;;;7.19;79.95;101278.13;4988264;28;20046;-83
2023/10/07 03:51:35;;;;;;;7.03;3.05;;;;;;;7.38;79.67;101272.25;4974282;28;20109;-82
2023/10/07 03:54:11;;;;;;;7.60;2.83;;;;;;;7.51;79.30;101282.84;4989794;28;20042;-82
2023/10/07 03:56:38;;;;;;;5.70;2.88;;;;;;;7.46;78.46;101290.63;4972261;28;20125;-83
2023/10/07 03:59:05;;;;;;;8.32;2.58;;;;;;;7.36;79.06;101304.41;4982879;28;20054;-85
2023/10/07 04:01:33;;;;;;;8.60;3.35;;;;;;;7.37;79.74;101301.88;4987924;28;20046;-83
2023/10/07 04:04:00;;;;;;;7.70;3.60;;;;;;;7.40;79.40;101296.66;4991210;28;20085;-82
2023/10/07 04:06:30;;;;;;;8.27;3.20;;;;;;;7.41;79.31;101300.16;4994444;28;20057;-83
2023/10/07 04:09:06;;;;;;;7.53;2.83;;;;;;;7.07;81.16;101298.00;4988103;28;20042;-82
2023/10/07 04:11:36;;;;;;;7.40;2.90;;;;;;;7.08;81.73;101299.75;4989341;28;20046;-84
2023/10/07 04:14:19;;;;;;;5.45;2.00;;;;;;;7.23;80.54;101304.28;4993638;28;20080;-82
2023/10/07 04:16:50;;;;;;;8.30;3.00;;;;;;;7.13;80.95;101307.66;4994116;28;20054;-82
2023/10/07 04:21:45;;;;;;;6.15;2.95;;;;;;;7.02;82.70;101288.34;4994285;28;20050;-82
2023/10/07 04:24:12;;;;;;;6.45;2.78;;;;;;;7.02;82.89;101291.81;4994106;28;20046;-84
2023/10/07 04:26:40;;;;;;;7.43;3.10;;;;;;;6.97;83.11;101297.00;4987423;28;20062;-83
2023/10/07 04:29:14;;;;;;;10.20;3.25;;;;;;;6.92;83.33;101285.63;4988240;28;20054;-82
2023/10/07 04:31:47;;;;;;;9.10;3.40;;;;;;;6.95;83.31;101288.28;4990698;28;20052;-84
2023/10/07 04:34:18;;;;;;;9.70;2.63;;;;;;;6.88;83.37;101285.53;4994153;28;20118;-82
2023/10/07 04:39:37;;;;;;;6.78;2.90;;;;;;;7.02;83.02;101288.34;4992856;28;20046;-83
2023/10/07 04:42:06;;;;;;;7.25;3.00;;;;;;;7.10;83.54;101298.03;4990197;28;20088;-83
2023/10/07 04:52:42;;;;;;;8.27;3.30;;;;;;;7.04;82.93;101292.75;4985017;28;20113;-82
2023/10/07 04:55:19;;;;;;;9.77;2.83;;;;;;;7.08;82.76;101289.31;4995060;28;20104;-84
2023/10/07 05:03:08;;;;;;;8.27;3.10;;;;;;;6.99;83.21;101277.88;4991564;28;20050;-86
2023/10/07 05:05:35;;;;;;;8.60;3.25;;;;;;;7.06;83.13;101270.13;4969829;28;20114;-83
2023/10/07 05:08:11;;;;;;;8.82;3.00;;;;;;;6.88;83.35;101270.78;4984779;28;20062;-82
2023/10/07 05:10:41;;;;;;;8.90;3.40;;;;;;;6.85;83.80;101270.75;4989038;28;20049;-81
2023/10/07 05:13:09;;;;;;;6.97;2.72;;;;;;;6.83;84.20;101255.91;4990674;28;20058;-81
2023/10/07 05:15:41;;;;;;;7.07;2.67;;;;;;;6.82;84.07;101260.25;4992001;28;20058;-82
2023/10/07 05:18:12;;;;;;;;;;;;;;;6.87;83.71;101262.94;4991165;28;20058;-84
2023/10/07 05:20:41;;;;;;;8.02;3.38;;;;;;;6.91;83.33;101264.75;4972876;28;19976;-82
2023/10/07 05:23:13;;;;;;;9.07;3.45;;;;;;;6.94;83.88;101265.63;4984395;28;20634;-83
2023/10/07 05:25:48;;;;;;;9.97;3.10;;;;;;;7.02;83.69;101293.56;4958130;28;20051;-83
2023/10/07 05:28:20;;;;;;;12.10;3.17;;;;;;;7.24;81.72;101285.16;4989110;28;20054;-83
2023/10/07 05:30:52;;;;;;;8.02;3.25;;;;;;;7.23;82.40;101293.84;4991941;28;20332;-83
2023/10/07 05:33:26;;;;;;;9.82;3.00;;;;;;;7.22;83.21;101286.88;4988146;28;20047;-82
2023/10/07 05:36:03;;;;;;;10.50;3.30;;;;;;;7.34;82.47;101286.13;4969160;28;20090;-82
2023/10/07 05:38:30;;;;;;;8.00;3.30;;;;;;;7.31;82.49;101287.00;4986581;28;20046;-82
2023/10/07 05:41:00;;;;;;;8.05;3.10;;;;;;;7.34;82.54;101288.75;4990971;28;20077;-82
2023/10/07 05:43:31;;;;;;;8.77;2.92;;;;;;;7.64;83.37;101287.34;4994669;28;20046;-83
2023/10/07 05:46:00;;;;;;;7.10;3.05;;;;;;;7.59;83.13;101300.38;4983950;28;20072;-82
2023/10/07 05:48:27;;;;;;;9.35;3.35;;;;;;;7.62;83.71;101289.06;4995807;28;20125;-86
2023/10/07 05:50:54;;;;;;;8.07;3.10;;;;;;;7.62;83.83;101276.88;4975138;28;20081;-83
2023/10/07 05:53:21;;;;;;;9.05;3.05;;;;;;;7.64;83.80;101282.97;4984963;28;20047;-84
2023/10/07 05:55:48;;;;;;;7.70;3.10;;;;;;;7.65;83.79;101287.34;4977486;28;20060;-82
2023/10/07 05:58:15;;;;;;;7.95;3.03;;;;;;;7.77;84.40;101290.97;4987438;28;20057;-82
2023/10/07 06:00:41;;;;;;;8.02;3.08;;;;;;;7.88;83.69;101299.78;4991909;28;20061;-83
2023/10/07 06:03:11;;;;;;;9.05;3.38;;;;;;;7.96;84.40;101294.63;4991721;28;20498;-82
2023/10/07 06:05:38;;;;;;;7.97;3.67;;;;;;;8.00;84.04;101289.44;4992033;28;20042;-83
2023/10/07 06:08:07;;;;;;;6.45;2.90;;;;;;;8.03;84.13;101299.03;4989206;28;20061;-84
2023/10/07 06:10:34;;;;;;;11.23;3.60;;;;;;;8.20;83.68;101301.81;4989880;28;20788;-84
2023/10/07 06:13:10;;;;;;;6.20;3.25;;;;;;;8.32;83.41;101293.19;4990888;28;20069;-83
2023/10/07 06:15:37;;;;;;;9.60;3.17;;;;;;;8.34;83.55;101296.69;4989642;28;20043;-83
2023/10/07 06:18:04;;;;;;;11.45;3.83;;;;;;;8.35;83.46;101291.47;4985869;28;20093;-84
2023/10/07 06:20:37;;;;;;;7.15;3.10;;;;;;;8.36;83.10;101298.44;4991035;28;20137;-83
2023/10/07 06:23:13;;;;;;;;;;;;;;;8.45;82.99;101295.06;4993190;28;20414;-84
2023/10/07 06:25:48;;;;;;;11.73;3.67;;;;;;;8.49;82.73;101282.91;4994733;28;19929;-84
2023/10/07 06:28:29;;;;;;;9.65;3.53;;;;;;;8.50;82.63;101284.63;4992636;28;20050;-84
2023/10/07 06:34:14;;;;;;;9.05;3.85;;;;;;;8.57;82.18;101289.03;4982740;28;20042;-84
2023/10/07 06:36:41;;;;;;;6.85;3.53;;;;;;;8.65;82.28;101295.19;4994971;28;20128;-83
2023/10/07 06:39:08;;;;;;;7.72;3.10;;;;;;;8.77;82.22;101296.16;4994689;28;20065;-83
2023/10/07 06:41:35;;;;;;;7.53;3.50;;;;;;;8.87;81.81;101301.44;4994003;28;20086;-84
2023/10/07 06:44:04;;;;;;;9.30;3.97;;;;;;;8.97;81.81;101291.03;4995882;28;20082;-84
2023/10/07 06:46:41;;;;;;;11.82;3.70;;;;;;;8.98;81.44;101293.66;4995550;28;20058;-85
2023/10/07 06:49:19;;;;;;;8.80;3.65;;;;;;;9.02;81.23;101290.19;4984394;28;20360;-84
2023/10/07 06:51:56;;;;;;;9.48;3.47;;;;;;;9.03;80.95;101289.31;4981609;28;20090;-85
2023/10/07 06:54:25;;;;;;;9.25;3.47;;;;;;;9.05;80.97;101284.06;4980982;28;20058;-84
2023/10/07 06:56:54;;;;;;;9.05;3.63;;;;;;;9.12;81.44;101290.22;4983509;28;20474;-84
2023/10/07 06:59:28;;;;;;;10.30;3.50;;;;;;;9.17;81.31;101288.50;4991432;28;20082;-84
2023/10/07 07:01:57;;;;;;;12.65;3.42;;;;;;;9.27;80.96;101292.91;4975490;28;20042;-83
2023/10/07 07:04:24;;;;;;;9.15;3.40;;;;;;;9.35;80.91;101292.94;4975344;28;20126;-86
2023/10/07 07:07:05;;;;;;;7.47;3.13;;;;;;;9.42;80.39;101294.72;4986617;28;20112;-84
2023/10/07 07:12:16;;;;;;;10.60;3.90;;;;;;;9.60;80.36;101304.34;4993796;28;20050;-85
2023/10/07 07:14:51;;;;;;;8.30;3.30;;;;;;;9.66;79.74;101304.41;4975321;28;20086;-85
2023/10/07 07:17:29;;;;;;;7.82;2.95;;;;;;;9.75;79.98;101293.91;4984684;28;20054;-84
2023/10/07 07:22:39;;;;;;;12.20;4.00;;;;;;;10.00;78.85;101312.31;4994560;28;20062;-83
2023/10/07 07:25:12;;;;;;;8.82;3.35;;;;;;;10.17;78.74;101317.56;4994692;28;20049;-83
2023/10/07 07:27:45;;;;;;;8.27;3.13;;;;;;;10.27;79.01;101307.97;4983607;28;20055;-84
2023/10/07 07:30:19;;;;;;;8.40;3.55;;;;;;;10.41;78.27;101314.13;4975876;28;20066;-84
2023/10/07 07:32:56;;;;;;;7.57;3.00;;;;;;;10.53;78.28;101315.84;4994664;28;20066;-84
2023/10/07 07:35:38;;;;;;;8.73;3.42;;;;;;;10.61;78.07;101307.97;4957915;28;20124;-85
2023/10/07 07:40:49;;;;;;;11.18;3.40;;;;;;;10.79;77.43;101321.06;4993630;28;20133;-88
2023/10/07 07:43:19;;;;;;;7.65;2.63;;;;;;;10.98;76.22;101322.75;4975336;28;20055;-84
2023/10/07 07:45:46;;;;;;;7.32;3.00;;;;;;;11.12;76.08;101316.63;4989924;28;20497;-84
2023/10/07 07:48:14;;;;;;;5.00;2.25;;;;;;;11.23;75.93;101310.44;4993050;28;20062;-84
2023/10/07 07:50:41;;;;;;;6.60;2.75;;;;;;;11.33;75.46;101322.66;4974058;28;20051;-84
2023/10/07 07:53:12;;;;;;;4.93;2.80;;;;;;;11.40;75.01;101332.25;4981959;28;20058;-84
2023/10/07 07:55:46;;;;;;;5.93;2.42;;;;;;;11.51;74.13;101326.09;4994077;28;20078;-86
2023/10/07 07:58:13;;;;;;;;;;;;;;;11.59;73.91;101322.53;4994023;28;20050;-84
2023/10/07 08:00:58;;;;;;;6.28;2.70;;;;;;;11.59;74.01;101327.78;4992261;28;19921;-83
2023/10/07 08:03:25;;;;;;;5.32;2.55;;;;;;;11.61;74.32;101318.13;4977390;28;20046;-84
2023/10/07 08:05:56;;;;;;;7.47;2.85;;;;;;;11.64;74.75;101320.75;4977725;28;20120;-84
2023/10/07 08:08:25;;;;;;;8.77;3.13;;;;;;;11.74;73.65;101328.59;4993371;28;20065;-84
2023/10/07 08:10:54;;;;;;;6.68;2.95;;;;;;;11.87;73.89;101329.41;4973232;28;20059;-84
2023/10/07 08:13:23;;;;;;;8.98;3.03;;;;;;;11.99;73.40;101331.97;4985160;28;20108;-84
2023/10/07 08:15:51;;;;;;;8.32;2.92;;;;;;;12.01;73.68;101338.09;4993707;28;20051;-85
2023/10/07 08:18:40;;;;;;;6.68;3.00;;;;;;;12.02;73.64;101345.13;4997718;28;20046;-84
2023/10/07 08:21:13;;;;;;;6.68;3.05;;;;;;;12.10;73.11;101334.53;4975270;28;20129;-84
2023/10/07 08:23:41;;;;;;;7.07;3.10;;;;;;;12.20;73.45;101340.63;4979018;28;20047;-84
2023/10/07 08:26:12;;;;;;;8.20;2.63;;;;;;;12.38;72.67;101336.94;4984163;28;20050;-84
2023/10/07 08:28:46;;;;;;;7.25;2.90;;;;;;;12.44;72.82;101332.50;4993426;28;20137;-83
2023/10/07 08:31:19;;;;;;;6.63;2.65;;;;;;;12.62;71.33;101339.38;4976586;28;20113;-84
2023/10/07 08:33:52;;;;;;;9.40;2.97;;;;;;;12.83;71.51;101334.78;4993246;28;20062;-83
2023/10/07 08:36:29;;;;;;;6.63;2.78;;;;;;;12.90;70.45;101338.22;4993602;28;20067;-85
2023/10/07 08:38:59;;;;;;;5.28;2.28;;;;;;;13.01;71.04;101337.22;4993419;28;20046;-83
2023/10/07 08:41:27;;;;;;;8.00;2.75;;;;;;;13.16;70.97;101341.44;4988345;28;20043;-84
2023/10/07 08:44:14;;;;;;;8.02;2.97;;;;;;;13.21;70.10;101346.69;4982043;28;20054;-84
2023/10/07 08:46:54;;;;;;;7.57;3.10;;;;;;;13.42;69.74;101360.53;4993224;28;20509;-84
2023/10/07 08:49:26;;;;;;;7.35;2.35;;;;;;;13.56;69.36;101351.53;4991248;28;20042;-84
2023/10/07 08:51:57;;;;;;;7.05;2.90;;;;;;;13.66;69.26;101359.34;4976139;28;20054;-84
2023/10/07 08:54:31;;;;;;;19.20;3.63;;;;;;;13.78;68.46;101351.25;4988515;28;20042;-83
2023/10/07 08:57:08;;;;;;;7.13;3.70;;;;;;;13.84;68.84;101351.16;4974034;28;20047;-84
2023/10/07 08:59:35;;;;;;;5.50;2.17;;;;;;;13.86;67.50;101354.66;4973360;28;20105;-83
2023/10/07 09:02:12;;;;;;;8.38;2.85;;;;;;;14.14;67.22;101358.66;4990081;28;20062;-83
2023/10/07 09:04:40;;;;;;;9.38;2.85;;;;;;;14.29;66.48;101352.28;4991490;28;20050;-84
2023/10/07 09:07:08;;;;;;;12.52;2.95;;;;;;;14.43;66.83;101350.28;4983878;28;20137;-84
2023/10/07 09:09:39;;;;;;;8.98;2.78;;;;;;;14.77;65.49;101353.25;4991719;28;20054;-83
2023/10/07 09:12:18;;;;;;;11.52;4.15;;;;;;;15.19;64.52;101347.16;4977323;28;20512;-84
2023/10/07 09:14:52;;;;;;;11.40;3.08;;;;;;;15.48;64.45;101356.25;4985152;28;20049;-83
2023/10/07 09:17:21;;;;;;;12.80;2.60;;;;;;;15.60;63.82;101342.78;4992977;28;20125;-83
2023/10/07 09:19:58;;;;;;;6.75;2.15;;;;;;;15.59;63.29;101351.63;4974495;28;20061;-83
2023/10/07 09:22:34;;;;;;;19.92;4.13;;;;;;;15.46;64.30;101340.44;4983954;28;20050;-84
2023/10/07 09:25:17;;;;;;;8.45;2.38;;;;;;;15.64;64.06;101348.88;4975264;28;20474;-83
2023/10/07 09:27:54;;;;;;;11.40;2.20;;;;;;;15.48;63.11;101348.31;4985545;28;20050;-86
2023/10/07 09:33:06;;;;;;;6.47;2.80;;;;;;;15.64;63.61;101340.94;4982873;28;20051;-83
2023/10/07 09:35:34;;;;;;;4.75;2.25;;;;;;;15.84;63.27;101345.81;4991658;28;20466;-85
2023/10/07 09:38:01;;;;;;;13.80;2.65;;;;;;;16.04;62.23;101345.38;4991444;28;20069;-83
2023/10/07 09:43:18;;;;;;;7.30;2.13;;;;;;;16.13;61.37;101336.34;4980845;28;20061;-85
2023/10/07 09:45:52;;;;;;;7.40;2.05;;;;;;;16.31;61.70;101324.44;4962752;28;20042;-83
2023/10/07 09:48:31;;;;;;;7.60;2.40;;;;;;;16.10;61.39;101331.13;4978117;28;20038;-83
2023/10/07 09:50:58;;;;;;;4.20;2.28;;;;;;;16.27;61.68;101328.94;4991141;28;20061;-83
2023/10/07 09:53:37;;;;;;;6.88;2.38;;;;;;;16.24;61.03;101333.44;5010869;28;20049;-83
2023/10/07 09:56:11;;;;;;;7.22;2.22;;;;;;;16.41;60.39;101335.66;4990193;28;20047;-83
2023/10/07 09:59:00;;;;;;;7.20;2.17;;;;;;;16.43;60.43;101334.72;4988483;28;20461;-83
2023/10/07 10:01:53;;;;;;;6.03;2.17;;;;;;;16.67;60.62;101327.91;4971376;28;20046;-84
2023/10/07 10:04:46;;;;;;;4.75;1.80;;;;;;;16.71;60.43;101327.84;4961251;28;20053;-83
2023/10/07 10:08:11;;;;;;;5.50;2.10;;;;;;;16.64;60.54;101325.34;4971874;28;20046;-84
2023/10/07 10:10:44;;;;;;;;;;;;;;;16.68;60.24;101327.03;4864849;29;20060;-84
2023/10/07 10:13:52;;;;;;;5.85;1.65;;;;;;;16.86;60.30;101323.00;4968531;28;19945;-85
2023/10/07 10:16:21;;;;;;;6.27;1.40;;;;;;;16.81;58.94;101329.31;4981525;28;20130;-85
2023/10/07 10:19:11;;;;;;;3.60;1.95;;;;;;;16.81;59.22;101329.31;4979950;28;20066;-86
2023/10/07 10:21:38;;;;;;;6.18;1.58;;;;;;;16.77;59.36;101330.31;4989287;28;20050;-85
2023/10/07 10:24:12;;;;;;;4.13;1.95;;;;;;;16.67;60.18;101329.72;4989139;28;20061;-84
2023/10/07 10:26:40;;;;;;;6.43;2.10;;;;;;;16.86;59.02;101327.44;4990232;28;20054;-83
2023/10/07 10:29:15;;;;;;;5.78;2.35;;;;;;;16.80;59.06;101317.88;4974465;28;20046;-83
2023/10/07 10:31:50;;;;;;;6.40;1.70;;;;;;;16.90;58.56;101323.81;4988310;28;20088;-83
2023/10/07 10:34:20;;;;;;;4.40;1.80;;;;;;;17.03;58.66;101333.16;4992842;28;20065;-84
2023/10/07 10:36:50;;;;;;;4.75;1.88;;;;;;;16.99;58.58;101336.81;4990775;28;20054;-84
2023/10/07 10:39:31;;;;;;;5.07;1.92;;;;;;;17.04;58.75;101334.03;4990624;28;20084;-84
2023/10/07 10:42:10;;;;;;;9.18;2.08;;;;;;;17.12;58.64;101331.16;4988421;28;20054;-84
2023/10/07 10:44:46;;;;;;;7.05;1.98;;;;;;;17.11;58.55;101326.78;4961101;28;20061;-84
2023/10/07 10:47:16;;;;;;;4.32;1.80;;;;;;;17.07;58.03;101331.28;4990861;28;20046;-84
2023/10/07 10:49:44;;;;;;;5.22;1.92;;;;;;;17.04;58.30;101326.06;4990862;28;20054;-84
2023/10/07 10:52:14;;;;;;;5.63;1.85;;;;;;;17.21;58.56;101323.81;4989968;28;20050;-84
2023/10/07 10:54:42;;;;;;;5.50;1.83;;;;;;;17.17;58.08;101327.47;4991118;28;20424;-84
2023/10/07 10:57:13;;;;;;;4.18;1.52;;;;;;;17.24;58.22;101317.56;4975427;28;20573;-85
2023/10/07 10:59:48;;;;;;;5.57;2.00;;;;;;;17.24;57.34;101322.84;4990707;28;20050;-84
2023/10/07 11:02:25;;;;;;;5.90;1.88;;;;;;;17.38;58.09;101320.69;4975324;28;20050;-86
2023/10/07 11:04:57;;;;;;;5.55;1.60;;;;;;;17.44;57.28;101324.03;4986983;28;20147;-85
2023/10/07 11:07:24;;;;;;;5.88;1.90;;;;;;;17.43;58.27;101330.28;4991995;28;20050;-84
2023/10/07 11:09:52;;;;;;;3.85;1.67;;;;;;;17.50;57.38;101319.44;4992143;28;20058;-85
2023/10/07 11:12:22;;;;;;;5.88;2.05;;;;;;;17.48;57.72;101305.34;4976902;28;20089;-85
2023/10/07 11:14:49;;;;;;;4.40;1.73;;;;;;;17.44;58.07;101303.72;4993293;28;20042;-85
2023/10/07 11:17:16;;;;;;;3.65;1.70;;;;;;;17.47;57.11;101305.41;4975476;28;20042;-84
2023/10/07 11:19:47;;;;;;;10.00;2.10;;;;;;;17.52;57.26;101295.50;4990865;28;20105;-84
2023/10/07 11:22:18;;;;;;;3.45;1.85;;;;;;;17.53;57.02;101302.56;4994058;28;20042;-84
2023/10/07 11:24:50;;;;;;;5.35;1.67;;;;;;;17.68;56.90;101299.44;4985407;28;20050;-83
2023/10/07 11:27:18;;;;;;;3.03;1.52;;;;;;;17.68;56.88;101299.44;4995985;28;20050;-86
2023/10/07 11:29:56;;;;;;;5.20;1.55;;;;;;;17.75;57.37;101300.09;4991777;28;20060;-85
2023/10/07 11:32:29;;;;;;;6.63;1.67;;;;;;;17.76;57.55;101293.03;4990930;28;20050;-85
2023/10/07 11:34:59;;;;;;;3.72;1.48;;;;;;;17.72;56.57;101293.09;4989490;28;20058;-85
2023/10/07 11:37:27;;;;;;;8.35;2.20;;;;;;;17.60;56.84;101293.50;4993085;28;20054;-85
2023/10/07 11:39:54;;;;;;;3.50;1.50;;;;;;;17.77;57.44;101278.81;4993880;28;20050;-84
2023/10/07 11:42:22;;;;;;;9.35;1.67;;;;;;;18.00;56.93;101286.97;4977502;28;20173;-86
2023/10/07 11:44:54;;;;;;;14.43;2.40;;;;;;;17.90;56.54;101290.81;4989815;28;20133;-85
2023/10/07 11:47:24;;;;;;;3.50;1.38;;;;;;;18.01;56.90;101288.69;4994142;28;20049;-83
2023/10/07 11:49:51;;;;;;;5.25;1.90;;;;;;;18.01;55.78;101286.03;4985320;28;20054;-84
2023/10/07 11:52:19;;;;;;;2.33;1.30;;;;;;;18.27;55.08;101273.66;4994602;28;20050;-83
2023/10/07 11:54:46;;;;;;;12.45;1.58;;;;;;;18.40;53.43;101280.28;4992629;28;20069;-87
2023/10/07 11:57:13;;;;;;;3.60;1.25;;;;;;;18.51;53.15;101276.38;4985695;28;20057;-84
2023/10/07 11:59:44;;;;;;;4.68;1.40;;;;;;;18.55;52.90;101270.94;4992421;28;20054;-85
2023/10/07 12:02:12;;;;;;;2.90;1.20;;;;;;;18.53;52.38;101274.56;4990966;28;20061;-85
2023/10/07 12:04:40;;;;;;;2.60;1.17;;;;;;;18.45;51.24;101276.59;4993808;28;20050;-82
2023/10/07 12:07:08;;;;;;;3.47;1.63;;;;;;;18.71;51.77;101275.69;4991161;28;20042;-84
2023/10/07 12:09:35;;;;;;;3.53;1.10;;;;;;;19.00;50.98;101269.38;4979437;28;20137;-85
2023/10/07 12:12:02;;;;;;;2.25;1.33;;;;;;;19.60;48.93;101269.69;4983082;28;20066;-85
2023/10/07 12:14:31;;;;;;;4.63;1.55;;;;;;;19.40;49.18;101277.63;4975866;28;20101;-84
2023/10/07 12:16:58;;;;;;;5.25;1.40;;;;;;;18.96;49.72;101278.38;4976151;28;20054;-83
2023/10/07 12:19:25;;;;;;;2.47;1.40;;;;;;;18.94;49.55;101281.09;4993371;28;20050;-83
2023/10/07 12:21:52;;;;;;;2.40;1.20;;;;;;;18.97;49.72;101261.47;4990961;28;20061;-84
2023/10/07 12:24:20;;;;;;;3.72;1.40;;;;;;;19.02;50.64;101270.16;4993223;28;20061;-84
2023/10/07 12:26:47;;;;;;;3.03;1.40;;;;;;;18.87;50.22;101268.06;4991281;28;20054;-84
2023/10/07 12:29:14;;;;;;;3.15;1.75;;;;;;;18.98;49.78;101273.00;4989946;28;20467;-84
2023/10/07 12:31:43;;;;;;;5.13;1.70;;;;;;;18.96;49.52;101267.72;4987570;28;20086;-84
2023/10/07 12:37:02;;;;;;;5.80;1.70;;;;;;;19.04;49.67;101254.13;5583144;23;20055;-80
2023/10/07 12:39:37;;;;;;;4.82;1.33;;;;;;;19.35;48.74;101271.59;4907242;29;20051;-80
2023/10/07 12:42:05;;;;;;;3.63;1.40;;;;;;;19.53;48.16;101259.38;4928068;28;20050;-80
2023/10/07 12:44:31;;;;;;;3.53;1.73;;;;;;;19.15;48.67;101267.03;4941472;28;20058;-83
2023/10/07 12:47:00;;;;;;;3.67;1.42;;;;;;;19.60;48.79;101264.38;4930606;28;20051;-83
2023/10/07 12:49:27;;;;;;;4.75;1.30;;;;;;;19.71;47.75;101266.63;4933654;28;20066;-86
2023/10/07 12:51:54;;;;;;;3.92;1.73;;;;;;;20.23;47.23;101262.75;4940771;29;20047;-83
2023/10/07 12:54:21;;;;;;;4.10;1.63;;;;;;;20.19;46.98;101262.03;4932744;28;20051;-84